sensor_id;sensor_type;location;lat;lon;timestamp;temperature;humidity
3172;DHT22;1597;51.572;6.992;2022-09-12T00:00:17;16.20;99.90
3172;DHT22;1597;51.572;6.992;2022-09-12T00:02:43;16.10;99.90
3172;DHT22;1597;51.572;6.992;2022-09-12T00:05:09;16.10;99.90
3172;DHT22;1597;51.572;6.992;2022-09-12T00:07:34;16.10;99.90
3172;DHT22;1597;51.572;6.992;2022-09-12T00:10:00;16.10;99.90
3172;DHT22;1597;51.572;6.992;2022-09-12T00:12:26;16.10;99.90
3172;DHT22;1597;51.572;6.992;2022-09-12T00:14:52;16.10;99.90
3172;DHT22;1597;51.572;6.992;2022-09-12T00:17:18;16.10;99.90
3172;DHT22;1597;51.572;6.992;2022-09-12T00:19:43;16.10;99.90
3172;DHT22;1597;51.572;6.992;2022-09-12T00:22:09;16.10;99.90
3172;DHT22;1597;51.572;6.992;2022-09-12T00:24:35;16.10;99.90
3172;DHT22;1597;51.572;6.992;2022-09-12T00:27:00;16.10;99.90
3172;DHT22;1597;51.572;6.992;2022-09-12T00:29:26;16.10;99.90
3172;DHT22;1597;51.572;6.992;2022-09-12T00:31:52;16.10;99.90
3172;DHT22;1597;51.572;6.992;2022-09-12T00:34:18;16.00;99.90
3172;DHT22;1597;51.572;6.992;2022-09-12T00:36:43;16.00;99.90
3172;DHT22;1597;51.572;6.992;2022-09-12T00:39:14;16.00;99.90
3172;DHT22;1597;51.572;6.992;2022-09-12T00:41:41;16.00;99.90
3172;DHT22;1597;51.572;6.992;2022-09-12T00:49:47;15.90;99.90
3172;DHT22;1597;51.572;6.992;2022-09-12T00:52:25;15.90;99.90
3172;DHT22;1597;51.572;6.992;2022-09-12T00:57:58;15.80;99.90
3172;DHT22;1597;51.572;6.992;2022-09-12T01:00:27;15.70;99.90
3172;DHT22;1597;51.572;6.992;2022-09-12T01:02:57;15.70;99.90
3172;DHT22;1597;51.572;6.992;2022-09-12T01:05:27;15.70;99.90
3172;DHT22;1597;51.572;6.992;2022-09-12T01:07:53;15.70;99.90
3172;DHT22;1597;51.572;6.992;2022-09-12T01:10:21;15.70;99.90
3172;DHT22;1597;51.572;6.992;2022-09-12T01:12:48;15.70;99.90
3172;DHT22;1597;51.572;6.992;2022-09-12T01:15:14;15.70;99.90
3172;DHT22;1597;51.572;6.992;2022-09-12T01:21:01;15.70;99.90
3172;DHT22;1597;51.572;6.992;2022-09-12T01:27:14;15.70;99.90
3172;DHT22;1597;51.572;6.992;2022-09-12T01:35:38;15.70;99.90
3172;DHT22;1597;51.572;6.992;2022-09-12T01:46:58;15.60;99.90
3172;DHT22;1597;51.572;6.992;2022-09-12T01:49:47;15.50;99.90
3172;DHT22;1597;51.572;6.992;2022-09-12T01:52:32;15.50;99.90
3172;DHT22;1597;51.572;6.992;2022-09-12T01:55:26;15.50;99.90
3172;DHT22;1597;51.572;6.992;2022-09-12T01:58:03;15.60;99.90
3172;DHT22;1597;51.572;6.992;2022-09-12T02:00:34;15.60;99.90
3172;DHT22;1597;51.572;6.992;2022-09-12T02:03:31;15.50;99.90
3172;DHT22;1597;51.572;6.992;2022-09-12T02:06:05;15.50;99.90
3172;DHT22;1597;51.572;6.992;2022-09-12T02:08:44;15.60;99.90
3172;DHT22;1597;51.572;6.992;2022-09-12T02:11:20;15.60;99.90
3172;DHT22;1597;51.572;6.992;2022-09-12T02:16:34;15.50;99.90
3172;DHT22;1597;51.572;6.992;2022-09-12T02:19:23;15.50;99.90
3172;DHT22;1597;51.572;6.992;2022-09-12T02:21:55;15.50;99.90
3172;DHT22;1597;51.572;6.992;2022-09-12T02:24:27;15.40;99.90
3172;DHT22;1597;51.572;6.992;2022-09-12T02:27:00;15.40;99.90
3172;DHT22;1597;51.572;6.992;2022-09-12T02:29:29;15.40;99.90
3172;DHT22;1597;51.572;6.992;2022-09-12T02:35:48;15.30;99.90
3172;DHT22;1597;51.572;6.992;2022-09-12T02:38:28;15.30;99.90
3172;DHT22;1597;51.572;6.992;2022-09-12T02:41:13;15.30;99.90
3172;DHT22;1597;51.572;6.992;2022-09-12T02:43:41;15.20;99.90
3172;DHT22;1597;51.572;6.992;2022-09-12T02:46:12;15.20;99.90
3172;DHT22;1597;51.572;6.992;2022-09-12T02:48:42;15.20;99.90
3172;DHT22;1597;51.572;6.992;2022-09-12T02:51:09;15.20;99.90
3172;DHT22;1597;51.572;6.992;2022-09-12T02:53:36;15.20;99.90
3172;DHT22;1597;51.572;6.992;2022-09-12T02:56:06;15.30;99.90
3172;DHT22;1597;51.572;6.992;2022-09-12T02:58:35;15.30;99.90
3172;DHT22;1597;51.572;6.992;2022-09-12T03:04:57;15.20;99.90
3172;DHT22;1597;51.572;6.992;2022-09-12T03:07:55;15.20;99.90
3172;DHT22;1597;51.572;6.992;2022-09-12T03:13:32;15.20;99.90
3172;DHT22;1597;51.572;6.992;2022-09-12T03:19:32;15.10;99.90
3172;DHT22;1597;51.572;6.992;2022-09-12T03:22:24;15.10;99.90
3172;DHT22;1597;51.572;6.992;2022-09-12T03:27:45;14.90;99.90
3172;DHT22;1597;51.572;6.992;2022-09-12T03:30:21;14.90;99.90
3172;DHT22;1597;51.572;6.992;2022-09-12T03:32:50;15.00;99.90
3172;DHT22;1597;51.572;6.992;2022-09-12T03:35:19;15.00;99.90
3172;DHT22;1597;51.572;6.992;2022-09-12T03:37:48;15.00;99.90
3172;DHT22;1597;51.572;6.992;2022-09-12T03:40:14;15.00;99.90
3172;DHT22;1597;51.572;6.992;2022-09-12T03:42:41;15.10;99.90
3172;DHT22;1597;51.572;6.992;2022-09-12T03:45:07;15.10;99.90
3172;DHT22;1597;51.572;6.992;2022-09-12T03:47:34;15.10;99.90
3172;DHT22;1597;51.572;6.992;2022-09-12T03:50:00;15.00;99.90
3172;DHT22;1597;51.572;6.992;2022-09-12T03:52:27;15.00;99.90
3172;DHT22;1597;51.572;6.992;2022-09-12T03:54:52;14.90;99.90
3172;DHT22;1597;51.572;6.992;2022-09-12T03:57:18;14.90;99.90
3172;DHT22;1597;51.572;6.992;2022-09-12T03:59:44;14.90;99.90
3172;DHT22;1597;51.572;6.992;2022-09-12T04:02:10;14.80;99.90
3172;DHT22;1597;51.572;6.992;2022-09-12T04:04:42;14.80;99.90
3172;DHT22;1597;51.572;6.992;2022-09-12T04:07:09;14.80;99.90
3172;DHT22;1597;51.572;6.992;2022-09-12T04:09:35;14.80;99.90
3172;DHT22;1597;51.572;6.992;2022-09-12T04:12:01;14.80;99.90
3172;DHT22;1597;51.572;6.992;2022-09-12T04:14:27;14.80;99.90
3172;DHT22;1597;51.572;6.992;2022-09-12T04:16:53;14.90;99.90
3172;DHT22;1597;51.572;6.992;2022-09-12T04:19:19;14.90;99.90
3172;DHT22;1597;51.572;6.992;2022-09-12T04:21:44;14.90;99.90
3172;DHT22;1597;51.572;6.992;2022-09-12T04:24:10;14.90;99.90
3172;DHT22;1597;51.572;6.992;2022-09-12T04:26:36;14.80;99.90
3172;DHT22;1597;51.572;6.992;2022-09-12T04:29:02;14.80;99.90
3172;DHT22;1597;51.572;6.992;2022-09-12T04:31:28;14.90;99.90
3172;DHT22;1597;51.572;6.992;2022-09-12T04:33:59;14.90;99.90
3172;DHT22;1597;51.572;6.992;2022-09-12T04:36:27;14.90;99.90
3172;DHT22;1597;51.572;6.992;2022-09-12T04:38:53;14.90;99.90
3172;DHT22;1597;51.572;6.992;2022-09-12T04:41:24;14.90;99.90
3172;DHT22;1597;51.572;6.992;2022-09-12T04:43:56;14.90;99.90
3172;DHT22;1597;51.572;6.992;2022-09-12T04:46:26;14.90;99.90
3172;DHT22;1597;51.572;6.992;2022-09-12T04:48:52;14.90;99.90
3172;DHT22;1597;51.572;6.992;2022-09-12T04:51:24;14.90;99.90
3172;DHT22;1597;51.572;6.992;2022-09-12T04:53:53;14.90;99.90
3172;DHT22;1597;51.572;6.992;2022-09-12T04:56:22;14.90;99.90
3172;DHT22;1597;51.572;6.992;2022-09-12T04:58:49;14.90;99.90
3172;DHT22;1597;51.572;6.992;2022-09-12T05:01:20;14.90;99.90
3172;DHT22;1597;51.572;6.992;2022-09-12T05:03:47;14.90;99.90
3172;DHT22;1597;51.572;6.992;2022-09-12T05:06:16;14.90;99.90
3172;DHT22;1597;51.572;6.992;2022-09-12T05:08:44;14.90;99.90
3172;DHT22;1597;51.572;6.992;2022-09-12T05:11:12;14.90;99.90
3172;DHT22;1597;51.572;6.992;2022-09-12T05:13:40;14.90;99.90
3172;DHT22;1597;51.572;6.992;2022-09-12T05:16:07;14.90;99.90
3172;DHT22;1597;51.572;6.992;2022-09-12T05:18:35;14.90;99.90
3172;DHT22;1597;51.572;6.992;2022-09-12T05:21:04;14.90;99.90
3172;DHT22;1597;51.572;6.992;2022-09-12T05:23:32;14.90;99.90
3172;DHT22;1597;51.572;6.992;2022-09-12T05:25:59;14.90;99.90
3172;DHT22;1597;51.572;6.992;2022-09-12T05:28:29;14.90;99.90
3172;DHT22;1597;51.572;6.992;2022-09-12T05:31:13;14.90;99.90
3172;DHT22;1597;51.572;6.992;2022-09-12T05:33:42;14.90;99.90
3172;DHT22;1597;51.572;6.992;2022-09-12T05:36:18;15.00;99.90
3172;DHT22;1597;51.572;6.992;2022-09-12T05:38:45;15.00;99.90
3172;DHT22;1597;51.572;6.992;2022-09-12T05:41:13;15.00;99.90
3172;DHT22;1597;51.572;6.992;2022-09-12T05:43:41;15.10;99.90
3172;DHT22;1597;51.572;6.992;2022-09-12T05:46:10;15.10;99.90
3172;DHT22;1597;51.572;6.992;2022-09-12T05:48:41;15.10;99.90
3172;DHT22;1597;51.572;6.992;2022-09-12T05:51:11;15.20;99.90
3172;DHT22;1597;51.572;6.992;2022-09-12T05:53:39;15.30;99.90
3172;DHT22;1597;51.572;6.992;2022-09-12T05:56:11;15.30;99.90
3172;DHT22;1597;51.572;6.992;2022-09-12T05:58:44;15.30;99.90
3172;DHT22;1597;51.572;6.992;2022-09-12T06:01:16;15.30;99.90
3172;DHT22;1597;51.572;6.992;2022-09-12T06:03:52;15.40;99.90
3172;DHT22;1597;51.572;6.992;2022-09-12T06:06:21;15.40;99.90
3172;DHT22;1597;51.572;6.992;2022-09-12T06:08:50;15.40;99.90
3172;DHT22;1597;51.572;6.992;2022-09-12T06:11:19;15.50;99.90
3172;DHT22;1597;51.572;6.992;2022-09-12T06:13:47;15.50;99.90
3172;DHT22;1597;51.572;6.992;2022-09-12T06:16:19;15.60;99.90
3172;DHT22;1597;51.572;6.992;2022-09-12T06:18:48;15.60;99.90
3172;DHT22;1597;51.572;6.992;2022-09-12T06:21:14;15.70;99.90
3172;DHT22;1597;51.572;6.992;2022-09-12T06:23:41;15.80;99.90
3172;DHT22;1597;51.572;6.992;2022-09-12T06:26:09;15.80;99.90
3172;DHT22;1597;51.572;6.992;2022-09-12T06:28:37;15.90;99.90
3172;DHT22;1597;51.572;6.992;2022-09-12T06:31:15;15.90;99.90
3172;DHT22;1597;51.572;6.992;2022-09-12T06:33:44;15.90;99.90
3172;DHT22;1597;51.572;6.992;2022-09-12T06:36:21;16.00;99.90
3172;DHT22;1597;51.572;6.992;2022-09-12T06:39:12;16.00;99.90
3172;DHT22;1597;51.572;6.992;2022-09-12T06:41:42;16.10;99.90
3172;DHT22;1597;51.572;6.992;2022-09-12T06:44:20;16.10;99.90
3172;DHT22;1597;51.572;6.992;2022-09-12T06:46:48;16.20;99.90
3172;DHT22;1597;51.572;6.992;2022-09-12T06:49:15;16.20;99.90
3172;DHT22;1597;51.572;6.992;2022-09-12T06:51:42;16.30;99.90
3172;DHT22;1597;51.572;6.992;2022-09-12T06:54:08;16.30;99.90
3172;DHT22;1597;51.572;6.992;2022-09-12T06:56:37;16.30;99.90
3172;DHT22;1597;51.572;6.992;2022-09-12T06:59:04;16.40;99.90
3172;DHT22;1597;51.572;6.992;2022-09-12T07:01:31;16.40;99.90
3172;DHT22;1597;51.572;6.992;2022-09-12T07:03:59;16.40;99.90
3172;DHT22;1597;51.572;6.992;2022-09-12T07:06:34;16.40;99.90
3172;DHT22;1597;51.572;6.992;2022-09-12T07:09:04;16.50;99.90
3172;DHT22;1597;51.572;6.992;2022-09-12T07:11:32;16.50;99.90
3172;DHT22;1597;51.572;6.992;2022-09-12T07:14:02;16.50;99.90
3172;DHT22;1597;51.572;6.992;2022-09-12T07:16:29;16.50;99.90
3172;DHT22;1597;51.572;6.992;2022-09-12T07:18:57;16.50;99.90
3172;DHT22;1597;51.572;6.992;2022-09-12T07:21:25;16.60;99.90
3172;DHT22;1597;51.572;6.992;2022-09-12T07:23:51;16.60;99.90
3172;DHT22;1597;51.572;6.992;2022-09-12T07:26:19;16.60;99.90
3172;DHT22;1597;51.572;6.992;2022-09-12T07:28:50;16.70;99.90
3172;DHT22;1597;51.572;6.992;2022-09-12T07:31:19;16.70;99.90
3172;DHT22;1597;51.572;6.992;2022-09-12T07:33:47;16.70;99.90
3172;DHT22;1597;51.572;6.992;2022-09-12T07:36:19;16.80;99.90
3172;DHT22;1597;51.572;6.992;2022-09-12T07:38:47;16.80;99.90
3172;DHT22;1597;51.572;6.992;2022-09-12T07:41:20;16.80;99.90
3172;DHT22;1597;51.572;6.992;2022-09-12T07:43:52;16.80;99.90
3172;DHT22;1597;51.572;6.992;2022-09-12T07:46:19;16.80;99.90
3172;DHT22;1597;51.572;6.992;2022-09-12T07:48:54;16.80;99.90
3172;DHT22;1597;51.572;6.992;2022-09-12T07:51:23;16.80;99.90
3172;DHT22;1597;51.572;6.992;2022-09-12T07:53:50;16.90;99.90
3172;DHT22;1597;51.572;6.992;2022-09-12T07:56:17;17.00;99.90
3172;DHT22;1597;51.572;6.992;2022-09-12T07:58:44;17.00;99.90
3172;DHT22;1597;51.572;6.992;2022-09-12T08:01:14;17.00;99.90
3172;DHT22;1597;51.572;6.992;2022-09-12T08:03:43;17.10;99.90
3172;DHT22;1597;51.572;6.992;2022-09-12T08:06:19;17.10;99.90
3172;DHT22;1597;51.572;6.992;2022-09-12T08:08:53;17.10;99.90
3172;DHT22;1597;51.572;6.992;2022-09-12T08:11:21;17.20;99.90
3172;DHT22;1597;51.572;6.992;2022-09-12T08:13:48;17.20;99.90
3172;DHT22;1597;51.572;6.992;2022-09-12T08:16:18;17.20;99.90
3172;DHT22;1597;51.572;6.992;2022-09-12T08:18:47;17.30;99.90
3172;DHT22;1597;51.572;6.992;2022-09-12T08:21:16;17.40;99.90
3172;DHT22;1597;51.572;6.992;2022-09-12T08:23:43;17.40;99.90
3172;DHT22;1597;51.572;6.992;2022-09-12T08:26:11;17.40;99.90
3172;DHT22;1597;51.572;6.992;2022-09-12T08:28:38;17.50;99.90
3172;DHT22;1597;51.572;6.992;2022-09-12T08:31:11;17.50;99.90
3172;DHT22;1597;51.572;6.992;2022-09-12T08:33:39;17.50;99.90
3172;DHT22;1597;51.572;6.992;2022-09-12T08:36:12;17.50;99.90
3172;DHT22;1597;51.572;6.992;2022-09-12T08:38:42;17.60;99.90
3172;DHT22;1597;51.572;6.992;2022-09-12T08:44:13;17.80;99.90
3172;DHT22;1597;51.572;6.992;2022-09-12T08:47:26;17.90;99.90
3172;DHT22;1597;51.572;6.992;2022-09-12T08:55:39;18.20;99.90
3172;DHT22;1597;51.572;6.992;2022-09-12T08:58:16;18.30;99.90
3172;DHT22;1597;51.572;6.992;2022-09-12T09:00:55;18.40;99.90
3172;DHT22;1597;51.572;6.992;2022-09-12T09:04:14;18.50;99.90
3172;DHT22;1597;51.572;6.992;2022-09-12T09:10:07;18.70;99.90
3172;DHT22;1597;51.572;6.992;2022-09-12T09:15:44;18.90;99.90
3172;DHT22;1597;51.572;6.992;2022-09-12T09:18:22;18.90;99.90
3172;DHT22;1597;51.572;6.992;2022-09-12T09:21:13;19.00;99.90
3172;DHT22;1597;51.572;6.992;2022-09-12T09:23:49;19.00;99.90
3172;DHT22;1597;51.572;6.992;2022-09-12T09:27:11;19.10;99.90
3172;DHT22;1597;51.572;6.992;2022-09-12T09:29:28;19.30;99.90
3172;DHT22;1597;51.572;6.992;2022-09-12T09:32:11;19.40;99.90
3172;DHT22;1597;51.572;6.992;2022-09-12T09:34:41;19.60;99.90
3172;DHT22;1597;51.572;6.992;2022-09-12T09:40:17;19.70;98.20
3172;DHT22;1597;51.572;6.992;2022-09-12T09:43:23;19.70;95.80
3172;DHT22;1597;51.572;6.992;2022-09-12T09:45:52;19.70;96.80
3172;DHT22;1597;51.572;6.992;2022-09-12T09:48:21;19.70;96.50
3172;DHT22;1597;51.572;6.992;2022-09-12T09:50:58;19.80;96.10
3172;DHT22;1597;51.572;6.992;2022-09-12T09:53:36;19.90;96.80
3172;DHT22;1597;51.572;6.992;2022-09-12T09:56:11;19.80;93.40
3172;DHT22;1597;51.572;6.992;2022-09-12T09:58:40;20.10;93.60
3172;DHT22;1597;51.572;6.992;2022-09-12T10:01:15;20.20;91.00
3172;DHT22;1597;51.572;6.992;2022-09-12T10:03:49;20.20;90.20
3172;DHT22;1597;51.572;6.992;2022-09-12T10:06:21;20.30;90.40
3172;DHT22;1597;51.572;6.992;2022-09-12T10:08:50;20.40;86.90
3172;DHT22;1597;51.572;6.992;2022-09-12T10:11:21;20.40;77.40
3172;DHT22;1597;51.572;6.992;2022-09-12T10:13:53;20.50;74.00
3172;DHT22;1597;51.572;6.992;2022-09-12T10:16:47;20.60;74.00
3172;DHT22;1597;51.572;6.992;2022-09-12T10:19:22;20.70;75.70
3172;DHT22;1597;51.572;6.992;2022-09-12T10:22:06;20.80;63.40
3172;DHT22;1597;51.572;6.992;2022-09-12T10:24:41;20.90;57.60
3172;DHT22;1597;51.572;6.992;2022-09-12T10:27:32;20.90;55.70
3172;DHT22;1597;51.572;6.992;2022-09-12T10:32:28;21.20;39.30
3172;DHT22;1597;51.572;6.992;2022-09-12T10:35:28;21.20;31.00
3172;DHT22;1597;51.572;6.992;2022-09-12T10:37:59;21.30;27.00
3172;DHT22;1597;51.572;6.992;2022-09-12T10:40:37;21.30;26.40
3172;DHT22;1597;51.572;6.992;2022-09-12T10:43:24;21.40;24.30
3172;DHT22;1597;51.572;6.992;2022-09-12T10:48:44;21.50;20.80
3172;DHT22;1597;51.572;6.992;2022-09-12T10:53:50;21.70;16.70
3172;DHT22;1597;51.572;6.992;2022-09-12T10:56:23;21.70;11.10
3172;DHT22;1597;51.572;6.992;2022-09-12T10:59:06;21.70;12.10
3172;DHT22;1597;51.572;6.992;2022-09-12T11:05:34;21.90;13.40
3172;DHT22;1597;51.572;6.992;2022-09-12T11:11:32;22.10;3.30
3172;DHT22;1597;51.572;6.992;2022-09-12T11:14:48;22.10;1.30
3172;DHT22;1597;51.572;6.992;2022-09-12T11:35:22;22.50;1.00
3172;DHT22;1597;51.572;6.992;2022-09-12T11:41:04;22.60;1.00
3172;DHT22;1597;51.572;6.992;2022-09-12T11:57:32;22.80;1.00
3172;DHT22;1597;51.572;6.992;2022-09-12T12:05:50;22.70;1.00
3172;DHT22;1597;51.572;6.992;2022-09-12T12:08:23;22.70;1.00
3172;DHT22;1597;51.572;6.992;2022-09-12T12:11:02;22.60;1.00
3172;DHT22;1597;51.572;6.992;2022-09-12T12:13:35;22.70;1.00
3172;DHT22;1597;51.572;6.992;2022-09-12T12:16:14;22.90;1.00
3172;DHT22;1597;51.572;6.992;2022-09-12T12:18:58;23.00;1.00
3172;DHT22;1597;51.572;6.992;2022-09-12T12:29:34;22.90;1.00
3172;DHT22;1597;51.572;6.992;2022-09-12T12:45:02;23.40;1.00
3172;DHT22;1597;51.572;6.992;2022-09-12T12:52:57;23.50;1.00
3172;DHT22;1597;51.572;6.992;2022-09-12T12:55:44;23.50;1.00
3172;DHT22;1597;51.572;6.992;2022-09-12T12:58:37;23.60;1.00
3172;DHT22;1597;51.572;6.992;2022-09-12T13:01:13;23.70;1.00
3172;DHT22;1597;51.572;6.992;2022-09-12T13:04:04;23.70;1.00
3172;DHT22;1597;51.572;6.992;2022-09-12T13:06:42;23.70;1.00
3172;DHT22;1597;51.572;6.992;2022-09-12T13:09:23;23.80;1.00
3172;DHT22;1597;51.572;6.992;2022-09-12T13:12:00;23.80;1.00
3172;DHT22;1597;51.572;6.992;2022-09-12T13:14:55;23.80;1.00
3172;DHT22;1597;51.572;6.992;2022-09-12T13:20:20;23.80;1.00
3172;DHT22;1597;51.572;6.992;2022-09-12T13:22:49;23.80;1.00
3172;DHT22;1597;51.572;6.992;2022-09-12T13:25:29;23.80;1.00
3172;DHT22;1597;51.572;6.992;2022-09-12T13:28:18;23.90;1.00
3172;DHT22;1597;51.572;6.992;2022-09-12T13:31:00;23.90;1.00
3172;DHT22;1597;51.572;6.992;2022-09-12T13:33:42;23.90;1.00
3172;DHT22;1597;51.572;6.992;2022-09-12T13:42:37;24.10;1.00
3172;DHT22;1597;51.572;6.992;2022-09-12T13:45:14;24.10;1.00
3172;DHT22;1597;51.572;6.992;2022-09-12T13:47:45;24.00;1.00
3172;DHT22;1597;51.572;6.992;2022-09-12T13:50:36;24.00;1.00
3172;DHT22;1597;51.572;6.992;2022-09-12T13:53:08;24.00;1.00
3172;DHT22;1597;51.572;6.992;2022-09-12T13:55:40;23.80;1.00
3172;DHT22;1597;51.572;6.992;2022-09-12T14:00:45;23.90;1.00
3172;DHT22;1597;51.572;6.992;2022-09-12T14:03:27;23.90;1.00
3172;DHT22;1597;51.572;6.992;2022-09-12T14:06:12;23.90;1.00
3172;DHT22;1597;51.572;6.992;2022-09-12T14:08:41;23.90;1.00
3172;DHT22;1597;51.572;6.992;2022-09-12T14:11:10;23.90;1.00
3172;DHT22;1597;51.572;6.992;2022-09-12T14:13:38;23.90;1.00
3172;DHT22;1597;51.572;6.992;2022-09-12T14:16:04;23.90;1.00
3172;DHT22;1597;51.572;6.992;2022-09-12T14:18:36;24.00;1.00
3172;DHT22;1597;51.572;6.992;2022-09-12T14:23:57;24.00;1.00
3172;DHT22;1597;51.572;6.992;2022-09-12T14:26:26;24.10;1.00
3172;DHT22;1597;51.572;6.992;2022-09-12T14:28:57;24.10;1.00
3172;DHT22;1597;51.572;6.992;2022-09-12T14:31:34;24.10;1.00
3172;DHT22;1597;51.572;6.992;2022-09-12T14:36:49;24.10;1.00
3172;DHT22;1597;51.572;6.992;2022-09-12T14:39:36;24.20;1.00
3172;DHT22;1597;51.572;6.992;2022-09-12T14:42:14;24.10;1.00
3172;DHT22;1597;51.572;6.992;2022-09-12T14:47:38;24.10;1.00
3172;DHT22;1597;51.572;6.992;2022-09-12T14:50:21;24.10;1.00
3172;DHT22;1597;51.572;6.992;2022-09-12T14:53:23;24.00;1.00
3172;DHT22;1597;51.572;6.992;2022-09-12T14:56:07;24.00;1.00
3172;DHT22;1597;51.572;6.992;2022-09-12T14:58:35;24.00;1.00
3172;DHT22;1597;51.572;6.992;2022-09-12T15:01:21;23.90;1.00
3172;DHT22;1597;51.572;6.992;2022-09-12T15:03:50;23.90;1.00
3172;DHT22;1597;51.572;6.992;2022-09-12T15:06:33;23.90;1.00
3172;DHT22;1597;51.572;6.992;2022-09-12T15:09:06;23.90;1.00
3172;DHT22;1597;51.572;6.992;2022-09-12T15:11:33;23.90;1.00
3172;DHT22;1597;51.572;6.992;2022-09-12T15:14:10;23.90;1.00
3172;DHT22;1597;51.572;6.992;2022-09-12T15:16:37;23.90;1.00
3172;DHT22;1597;51.572;6.992;2022-09-12T15:19:03;23.90;1.00
3172;DHT22;1597;51.572;6.992;2022-09-12T15:21:29;23.90;1.00
3172;DHT22;1597;51.572;6.992;2022-09-12T15:23:54;23.90;1.00
3172;DHT22;1597;51.572;6.992;2022-09-12T15:26:22;23.90;1.00
3172;DHT22;1597;51.572;6.992;2022-09-12T15:28:51;23.90;1.00
3172;DHT22;1597;51.572;6.992;2022-09-12T15:31:25;24.00;1.00
3172;DHT22;1597;51.572;6.992;2022-09-12T15:33:53;24.00;1.00
3172;DHT22;1597;51.572;6.992;2022-09-12T15:36:21;24.00;1.00
3172;DHT22;1597;51.572;6.992;2022-09-12T15:38:48;24.00;1.00
3172;DHT22;1597;51.572;6.992;2022-09-12T15:41:35;24.00;1.00
3172;DHT22;1597;51.572;6.992;2022-09-12T15:44:06;23.90;1.00
3172;DHT22;1597;51.572;6.992;2022-09-12T15:46:36;23.90;1.00
3172;DHT22;1597;51.572;6.992;2022-09-12T15:49:02;23.90;1.00
3172;DHT22;1597;51.572;6.992;2022-09-12T15:51:28;23.90;1.00
3172;DHT22;1597;51.572;6.992;2022-09-12T15:53:54;23.90;1.00
3172;DHT22;1597;51.572;6.992;2022-09-12T15:56:21;23.90;1.00
3172;DHT22;1597;51.572;6.992;2022-09-12T15:58:47;23.90;1.00
3172;DHT22;1597;51.572;6.992;2022-09-12T16:01:15;23.90;1.00
3172;DHT22;1597;51.572;6.992;2022-09-12T16:03:42;23.90;1.00
3172;DHT22;1597;51.572;6.992;2022-09-12T16:06:10;23.90;1.00
3172;DHT22;1597;51.572;6.992;2022-09-12T16:08:36;23.80;1.00
3172;DHT22;1597;51.572;6.992;2022-09-12T16:11:04;23.80;1.00
3172;DHT22;1597;51.572;6.992;2022-09-12T16:13:32;23.80;1.00
3172;DHT22;1597;51.572;6.992;2022-09-12T16:15:59;23.70;1.00
3172;DHT22;1597;51.572;6.992;2022-09-12T16:18:26;23.70;1.00
3172;DHT22;1597;51.572;6.992;2022-09-12T16:20:56;23.60;1.00
3172;DHT22;1597;51.572;6.992;2022-09-12T16:23:22;23.40;1.00
3172;DHT22;1597;51.572;6.992;2022-09-12T16:25:56;23.60;1.00
3172;DHT22;1597;51.572;6.992;2022-09-12T16:28:26;23.60;1.00
3172;DHT22;1597;51.572;6.992;2022-09-12T16:31:00;23.60;1.00
3172;DHT22;1597;51.572;6.992;2022-09-12T16:33:29;23.50;1.00
3172;DHT22;1597;51.572;6.992;2022-09-12T16:36:16;23.50;1.00
3172;DHT22;1597;51.572;6.992;2022-09-12T16:38:45;23.50;1.00
3172;DHT22;1597;51.572;6.992;2022-09-12T16:41:12;23.50;1.00
3172;DHT22;1597;51.572;6.992;2022-09-12T16:43:39;23.40;1.00
3172;DHT22;1597;51.572;6.992;2022-09-12T16:46:08;23.40;1.00
3172;DHT22;1597;51.572;6.992;2022-09-12T16:48:36;23.40;1.00
3172;DHT22;1597;51.572;6.992;2022-09-12T16:51:06;23.40;1.00
3172;DHT22;1597;51.572;6.992;2022-09-12T16:53:33;23.40;1.00
3172;DHT22;1597;51.572;6.992;2022-09-12T16:56:01;23.30;1.00
3172;DHT22;1597;51.572;6.992;2022-09-12T16:58:31;23.30;1.00
3172;DHT22;1597;51.572;6.992;2022-09-12T17:01:02;23.20;1.00
3172;DHT22;1597;51.572;6.992;2022-09-12T17:03:35;23.20;1.00
3172;DHT22;1597;51.572;6.992;2022-09-12T17:06:05;23.10;1.00
3172;DHT22;1597;51.572;6.992;2022-09-12T17:08:33;23.10;1.00
3172;DHT22;1597;51.572;6.992;2022-09-12T17:11:08;23.10;1.00
3172;DHT22;1597;51.572;6.992;2022-09-12T17:13:35;23.00;1.00
3172;DHT22;1597;51.572;6.992;2022-09-12T17:16:08;23.00;1.00
3172;DHT22;1597;51.572;6.992;2022-09-12T17:18:38;23.00;1.00
3172;DHT22;1597;51.572;6.992;2022-09-12T17:21:08;23.00;1.00
3172;DHT22;1597;51.572;6.992;2022-09-12T17:23:35;22.90;1.00
3172;DHT22;1597;51.572;6.992;2022-09-12T17:26:01;22.90;1.00
3172;DHT22;1597;51.572;6.992;2022-09-12T17:28:27;22.80;1.00
3172;DHT22;1597;51.572;6.992;2022-09-12T17:31:01;22.70;1.00
3172;DHT22;1597;51.572;6.992;2022-09-12T17:33:33;22.60;1.00
3172;DHT22;1597;51.572;6.992;2022-09-12T17:36:01;22.60;1.00
3172;DHT22;1597;51.572;6.992;2022-09-12T17:38:31;22.50;1.00
3172;DHT22;1597;51.572;6.992;2022-09-12T17:43:35;22.40;1.00
3172;DHT22;1597;51.572;6.992;2022-09-12T17:46:03;22.30;1.00
3172;DHT22;1597;51.572;6.992;2022-09-12T17:48:29;22.30;1.00
3172;DHT22;1597;51.572;6.992;2022-09-12T17:50:55;22.20;1.00
3172;DHT22;1597;51.572;6.992;2022-09-12T17:53:21;22.10;1.00
3172;DHT22;1597;51.572;6.992;2022-09-12T17:55:47;22.10;1.00
3172;DHT22;1597;51.572;6.992;2022-09-12T17:58:13;22.00;1.00
3172;DHT22;1597;51.572;6.992;2022-09-12T18:00:39;21.90;1.00
3172;DHT22;1597;51.572;6.992;2022-09-12T18:03:23;21.90;1.00
3172;DHT22;1597;51.572;6.992;2022-09-12T18:05:54;21.80;1.00
3172;DHT22;1597;51.572;6.992;2022-09-12T18:08:21;21.70;1.00
3172;DHT22;1597;51.572;6.992;2022-09-12T18:10:48;21.60;1.00
3172;DHT22;1597;51.572;6.992;2022-09-12T18:13:14;21.60;1.00
3172;DHT22;1597;51.572;6.992;2022-09-12T18:15:41;21.50;1.00
3172;DHT22;1597;51.572;6.992;2022-09-12T18:18:07;21.40;1.00
3172;DHT22;1597;51.572;6.992;2022-09-12T18:20:33;21.40;1.00
3172;DHT22;1597;51.572;6.992;2022-09-12T18:22:59;21.40;1.40
3172;DHT22;1597;51.572;6.992;2022-09-12T18:25:25;21.40;2.60
3172;DHT22;1597;51.572;6.992;2022-09-12T18:27:51;21.20;4.30
3172;DHT22;1597;51.572;6.992;2022-09-12T18:30:17;21.30;5.00
3172;DHT22;1597;51.572;6.992;2022-09-12T18:32:46;21.30;5.60
3172;DHT22;1597;51.572;6.992;2022-09-12T18:35:12;20.90;6.40
3172;DHT22;1597;51.572;6.992;2022-09-12T18:37:41;21.20;7.60
3172;DHT22;1597;51.572;6.992;2022-09-12T18:40:08;21.10;9.00
3172;DHT22;1597;51.572;6.992;2022-09-12T18:42:35;21.00;10.80
3172;DHT22;1597;51.572;6.992;2022-09-12T18:45:00;21.00;12.50
3172;DHT22;1597;51.572;6.992;2022-09-12T18:47:26;20.90;13.70
3172;DHT22;1597;51.572;6.992;2022-09-12T18:49:52;20.90;14.20
3172;DHT22;1597;51.572;6.992;2022-09-12T18:52:18;20.90;15.50
3172;DHT22;1597;51.572;6.992;2022-09-12T18:54:43;20.80;17.30
3172;DHT22;1597;51.572;6.992;2022-09-12T18:57:09;20.80;18.30
3172;DHT22;1597;51.572;6.992;2022-09-12T18:59:35;20.80;19.30
3172;DHT22;1597;51.572;6.992;2022-09-12T19:02:01;20.80;19.90
3172;DHT22;1597;51.572;6.992;2022-09-12T19:04:26;20.80;19.90
3172;DHT22;1597;51.572;6.992;2022-09-12T19:06:52;20.80;19.70
3172;DHT22;1597;51.572;6.992;2022-09-12T19:09:19;20.80;19.70
3172;DHT22;1597;51.572;6.992;2022-09-12T19:11:46;20.80;19.00
3172;DHT22;1597;51.572;6.992;2022-09-12T19:14:16;20.80;17.30
3172;DHT22;1597;51.572;6.992;2022-09-12T19:16:50;20.80;15.70
3172;DHT22;1597;51.572;6.992;2022-09-12T19:19:17;20.80;14.50
3172;DHT22;1597;51.572;6.992;2022-09-12T19:21:43;20.80;14.20
3172;DHT22;1597;51.572;6.992;2022-09-12T19:24:10;20.80;14.80
3172;DHT22;1597;51.572;6.992;2022-09-12T19:26:38;20.80;15.00
3172;DHT22;1597;51.572;6.992;2022-09-12T19:29:04;20.80;15.50